Time;durP1;ratioP1;P1;durP2;ratioP2;P2;SDS_P1;SDS_P2;PMS_P1;PMS_P2;Temp;Humidity;BMP_temperature;BMP_pressure;BME280_temperature;BME280_humidity;BME280_pressure;Samples;Min_cycle;Max_cycle;Signal;HPM_P1;HPM_P2
2022/08/17 00:00:28;;;;;;;9.57;5.93;;;;;;;21.30;100.00;98096.84;5022976;28;20033;-60
2022/08/17 00:03:14;;;;;;;8.07;5.65;;;;;;;21.47;100.00;98099.66;5017146;28;20049;-58
2022/08/17 00:05:49;;;;;;;10.57;5.70;;;;;;;21.25;96.61;98066.84;5015788;28;20049;-58
2022/08/17 00:08:17;;;;;;;8.20;5.18;;;;;;;21.44;94.57;98091.34;5023559;28;20072;-58
2022/08/17 00:10:44;;;;;;;7.55;5.22;;;;;;;21.01;94.83;98043.00;5014034;28;20109;-58
2022/08/17 00:13:19;;;;;;;7.90;5.67;;;;;;;21.11;93.87;98060.94;5004931;28;20041;-59
2022/08/17 00:15:45;;;;;;;10.57;5.15;;;;;;;21.38;94.00;98095.72;5025430;28;20332;-58
2022/08/17 00:18:11;;;;;;;9.45;5.65;;;;;;;21.47;94.92;98093.59;5020152;28;20037;-57
2022/08/17 00:20:36;;;;;;;9.23;6.10;;;;;;;21.48;95.29;98101.28;5022590;28;20044;-58
2022/08/17 00:23:07;;;;;;;11.43;6.00;;;;;;;21.54;96.51;98126.03;5024059;28;20026;-58
2022/08/17 00:25:33;;;;;;;9.63;6.20;;;;;;;21.50;97.33;98112.44;5017001;28;20638;-57
2022/08/17 00:27:59;;;;;;;9.80;5.95;;;;;;;21.24;96.66;98081.88;5006414;28;20036;-57
2022/08/17 00:30:24;;;;;;;11.35;6.78;;;;;;;21.50;96.14;98119.56;5011877;28;20036;-58
2022/08/17 00:32:50;;;;;;;9.55;6.18;;;;;;;21.53;96.70;98124.41;5020054;28;20485;-57
2022/08/17 00:35:24;;;;;;;9.60;6.55;;;;;;;21.48;97.22;98126.91;5005298;28;20029;-58
2022/08/17 00:37:50;;;;;;;8.38;5.93;;;;;;;21.34;95.89;98099.03;5005840;28;20447;-57
2022/08/17 00:40:18;;;;;;;8.98;6.15;;;;;;;21.56;95.63;98146.94;5024148;28;20024;-57
2022/08/17 00:42:44;;;;;;;9.02;6.30;;;;;;;21.52;97.11;98138.69;5016658;28;20104;-57
2022/08/17 00:45:12;;;;;;;8.38;5.70;;;;;;;21.52;96.01;98141.31;5021913;28;20084;-57
2022/08/17 00:47:38;;;;;;;9.90;6.25;;;;;;;21.51;97.11;98139.69;5006904;28;20355;-57
2022/08/17 00:50:06;;;;;;;8.15;6.53;;;;;;;21.48;98.44;98134.84;5002016;28;20014;-57
2022/08/17 00:52:35;;;;;;;9.90;6.35;;;;;;;21.46;97.11;98139.56;5017963;28;20025;-56
2022/08/17 00:55:01;;;;;;;8.77;6.07;;;;;;;21.56;97.12;98136.34;4993563;28;20638;-57
2022/08/17 00:57:30;;;;;;;9.30;6.57;;;;;;;21.65;96.97;98135.81;4995718;28;20060;-57
2022/08/17 01:00:08;;;;;;;10.05;6.20;;;;;;;21.69;95.34;98142.25;5016173;28;20473;-57
2022/08/17 01:02:38;;;;;;;7.88;5.60;;;;;;;21.69;95.13;98144.09;5017462;28;20443;-57
2022/08/17 01:05:05;;;;;;;8.88;5.82;;;;;;;21.54;95.76;98141.06;5017667;28;20025;-56
2022/08/17 01:07:30;;;;;;;10.43;6.03;;;;;;;21.26;95.54;98105.44;5020773;28;20124;-58
2022/08/17 01:09:56;;;;;;;8.60;5.85;;;;;;;21.54;94.94;98144.53;5019027;28;20033;-57
2022/08/17 01:12:22;;;;;;;9.57;6.30;;;;;;;21.45;96.42;98135.31;5011717;28;20033;-55
2022/08/17 01:14:47;;;;;;;8.60;5.68;;;;;;;21.21;95.17;98102.69;5020906;28;20029;-56
2022/08/17 01:17:13;;;;;;;8.77;6.20;;;;;;;21.43;99.04;98138.16;5023473;28;20723;-57
2022/08/17 01:19:40;;;;;;;10.55;7.07;;;;;;;21.38;100.00;98145.97;5020487;28;20476;-58
2022/08/17 01:22:10;;;;;;;10.60;6.57;;;;;;;21.03;100.00;98098.28;5013089;28;20038;-57
2022/08/17 01:24:41;;;;;;;8.77;6.45;;;;;;;21.23;100.00;98146.38;5011704;28;20033;-60
2022/08/17 01:27:08;;;;;;;9.65;5.90;;;;;;;21.18;98.59;98154.16;5019329;28;20079;-56
2022/08/17 01:29:35;;;;;;;9.40;5.53;;;;;;;21.15;96.23;98140.59;5022062;28;20069;-57
2022/08/17 01:32:02;;;;;;;7.80;4.45;;;;;;;21.07;94.43;98131.94;5019002;28;20085;-56
2022/08/17 01:34:28;;;;;;;10.07;5.22;;;;;;;21.12;97.38;98134.72;5016275;28;20033;-56
2022/08/17 01:36:54;;;;;;;7.43;5.32;;;;;;;21.06;99.02;98130.31;5000199;28;20495;-57
2022/08/17 01:39:31;;;;;;;7.28;5.65;;;;;;;21.10;98.05;98150.00;4997967;28;20056;-57
2022/08/17 01:42:11;;;;;;;7.85;5.15;;;;;;;21.12;96.85;98149.78;4999337;28;20025;-56
2022/08/17 01:44:37;;;;;;;9.05;5.35;;;;;;;20.93;95.56;98126.03;5005814;28;20030;-57
2022/08/17 01:47:02;;;;;;;6.35;4.40;;;;;;;21.07;93.73;98150.44;4998477;28;20033;-57
2022/08/17 01:49:28;;;;;;;7.30;4.72;;;;;;;20.96;96.14;98148.56;5014636;28;20617;-57
2022/08/17 01:51:54;;;;;;;7.07;4.22;;;;;;;20.87;91.61;98150.69;5015864;28;20045;-57
2022/08/17 01:54:19;;;;;;;7.22;4.30;;;;;;;20.94;93.57;98142.69;5007729;28;20045;-57
2022/08/17 01:56:49;;;;;;;7.50;4.88;;;;;;;20.91;95.91;98148.41;5008304;28;20096;-56
2022/08/17 01:59:15;;;;;;;;;;;;;;;20.77;97.99;98147.78;4999679;28;20032;-56
2022/08/17 02:01:41;;;;;;;9.23;4.53;;;;;;;20.62;99.40;98147.34;5012569;28;20236;-57
2022/08/17 02:04:07;;;;;;;6.82;4.60;;;;;;;20.61;99.17;98156.28;5018927;28;20029;-56
2022/08/17 02:06:35;;;;;;;8.25;4.20;;;;;;;20.59;98.44;98142.47;5021579;28;20064;-55
2022/08/17 02:09:01;;;;;;;7.32;4.30;;;;;;;20.29;98.90;98114.16;5023554;28;20033;-59
2022/08/17 02:11:26;;;;;;;6.40;4.20;;;;;;;20.24;97.88;98106.09;5015517;28;20037;-55
2022/08/17 02:13:52;;;;;;;6.95;3.95;;;;;;;20.31;97.96;98139.31;5012723;28;20106;-58
2022/08/17 02:16:18;;;;;;;7.15;3.92;;;;;;;20.14;97.57;98109.25;5002343;28;20045;-59
2022/08/17 02:18:43;;;;;;;6.20;3.85;;;;;;;20.36;100.00;98142.09;5020440;28;20022;-57
2022/08/17 02:21:09;;;;;;;5.88;4.18;;;;;;;20.38;97.27;98141.88;5020929;28;20814;-57
2022/08/17 02:23:37;;;;;;;7.03;4.32;;;;;;;20.31;97.49;98125.31;5014829;28;20060;-57
2022/08/17 02:26:04;;;;;;;6.38;4.20;;;;;;;20.38;98.60;98133.16;5020658;28;20052;-58
2022/08/17 02:28:29;;;;;;;6.70;4.30;;;;;;;20.15;98.35;98101.13;5005646;28;20030;-57
2022/08/17 02:30:56;;;;;;;6.18;3.88;;;;;;;20.37;96.37;98113.88;5010061;28;20055;-58
2022/08/17 02:33:22;;;;;;;5.80;3.90;;;;;;;20.46;96.92;98123.13;5019900;28;20638;-59
2022/08/17 02:35:47;;;;;;;6.97;3.90;;;;;;;20.44;96.34;98127.78;5018351;28;20072;-58
2022/08/17 02:38:13;;;;;;;5.47;3.63;;;;;;;20.45;95.83;98131.28;5019946;28;20047;-57
2022/08/17 02:40:39;;;;;;;7.05;4.07;;;;;;;20.34;96.65;98115.13;4997467;28;20739;-58
2022/08/17 02:43:06;;;;;;;6.50;4.22;;;;;;;20.29;96.80;98099.13;5000726;28;20677;-57
2022/08/17 02:45:31;;;;;;;7.38;4.25;;;;;;;20.48;97.02;98138.72;5013538;28;20033;-57
2022/08/17 02:47:57;;;;;;;7.65;4.47;;;;;;;20.45;97.91;98131.28;5018698;28;20039;-58
2022/08/17 02:50:23;;;;;;;7.32;4.35;;;;;;;20.42;98.06;98107.94;5003214;28;20026;-58
2022/08/17 02:52:49;;;;;;;8.45;4.55;;;;;;;20.51;97.79;98117.16;5019308;28;20040;-58
2022/08/17 02:55:26;;;;;;;7.05;4.93;;;;;;;20.48;96.59;98115.78;5019794;28;20045;-58
2022/08/17 02:57:52;;;;;;;9.93;5.20;;;;;;;20.55;96.72;98124.44;5027966;28;20853;-57
2022/08/17 03:00:32;;;;;;;6.97;4.72;;;;;;;20.54;96.69;98120.19;5019410;28;20044;-59
2022/08/17 03:02:58;;;;;;;6.55;4.43;;;;;;;20.54;96.90;98119.38;5017082;28;20030;-58
2022/08/17 03:05:25;;;;;;;7.07;4.30;;;;;;;20.54;97.37;98111.47;5002772;28;20491;-56
2022/08/17 03:07:51;;;;;;;8.10;4.72;;;;;;;20.52;97.28;98121.44;5018363;28;20179;-58
2022/08/17 03:10:17;;;;;;;6.85;4.35;;;;;;;20.56;96.93;98114.69;5014419;28;20416;-58
2022/08/17 03:12:44;;;;;;;6.35;4.20;;;;;;;20.54;98.42;98108.81;5004307;28;20025;-58
2022/08/17 03:15:15;;;;;;;7.00;4.22;;;;;;;20.48;98.33;98110.50;5003088;28;20068;-57
2022/08/17 03:17:41;;;;;;;8.45;5.05;;;;;;;20.26;98.96;98070.53;5001228;28;20022;-58
2022/08/17 03:20:07;;;;;;;7.10;4.38;;;;;;;20.53;98.97;98096.63;5020856;28;20044;-57
2022/08/17 03:22:48;;;;;;;8.20;4.55;;;;;;;20.49;99.35;98103.38;5002146;28;20028;-57
2022/08/17 03:25:16;;;;;;;7.13;4.57;;;;;;;20.47;99.34;98111.53;5017529;28;20026;-56
2022/08/17 03:27:42;;;;;;;7.22;4.93;;;;;;;20.46;98.91;98109.09;5017794;28;20022;-58
2022/08/17 03:30:09;;;;;;;8.02;4.68;;;;;;;20.41;99.21;98108.94;5019377;28;20392;-58
2022/08/17 03:32:46;;;;;;;9.00;5.63;;;;;;;20.39;99.17;98089.88;5017695;28;20029;-57
2022/08/17 03:35:14;;;;;;;8.57;4.93;;;;;;;20.39;98.59;98085.44;5013391;28;20030;-58
2022/08/17 03:37:40;;;;;;;7.38;4.63;;;;;;;20.39;98.48;98082.78;5015399;28;20029;-58
2022/08/17 03:40:07;;;;;;;7.47;4.65;;;;;;;20.08;98.92;98033.56;5004221;28;20037;-58
2022/08/17 03:42:34;;;;;;;9.25;4.85;;;;;;;20.25;99.33;98050.44;5018976;28;20033;-61
2022/08/17 03:45:00;;;;;;;7.72;4.55;;;;;;;20.36;99.59;98075.31;5018658;28;20046;-58
2022/08/17 03:58:25;;;;;;;7.43;4.57;;;;;;;20.04;100.00;98011.31;5011154;28;20044;-57
2022/08/17 04:00:51;;;;;;;7.28;4.65;;;;;;;20.38;100.00;98083.00;5019025;28;20061;-57
2022/08/17 04:03:17;;;;;;;7.95;4.63;;;;;;;20.31;100.00;98088.34;5014756;28;20478;-58
2022/08/17 04:05:43;;;;;;;9.60;5.13;;;;;;;20.26;100.00;98098.75;5020969;28;20033;-58
2022/08/17 04:08:09;;;;;;;9.48;4.90;;;;;;;20.33;100.00;98107.41;5014669;28;20104;-57
2022/08/17 04:10:35;;;;;;;12.02;5.60;;;;;;;20.30;100.00;98124.50;5017930;28;20137;-57
2022/08/17 04:13:01;;;;;;;12.32;6.30;;;;;;;20.47;100.00;98132.66;5022131;28;20024;-56
2022/08/17 04:15:27;;;;;;;12.13;5.78;;;;;;;20.50;100.00;98163.91;5004885;28;20665;-57
2022/08/17 04:17:52;;;;;;;15.48;6.88;;;;;;;20.61;100.00;98178.25;5003507;28;20626;-56
2022/08/17 04:20:20;;;;;;;18.95;7.72;;;;;;;20.66;100.00;98180.22;5017575;28;20034;-53
2022/08/17 04:23:14;;;;;;;11.68;5.82;;;;;;;19.92;100.00;98148.44;5024093;28;20063;-55
2022/08/17 04:25:49;;;;;;;13.45;5.85;;;;;;;19.65;100.00;98138.06;5005865;28;20064;-56
2022/08/17 04:28:17;;;;;;;16.90;6.93;;;;;;;19.47;100.00;98133.50;5018299;28;20032;-57
2022/08/17 04:30:44;;;;;;;11.63;5.70;;;;;;;19.40;100.00;98144.13;5021634;28;20117;-56
2022/08/17 04:33:18;;;;;;;9.00;4.90;;;;;;;19.12;100.00;98135.78;5021413;28;20034;-57
2022/08/17 04:35:49;;;;;;;8.73;5.00;;;;;;;19.21;100.00;98159.03;5021650;28;20044;-58
2022/08/17 04:38:18;;;;;;;9.65;5.38;;;;;;;19.22;100.00;98146.66;5036681;28;20025;-57
2022/08/17 04:43:29;;;;;;;7.28;4.68;;;;;;;19.10;100.00;98132.53;5016963;28;20091;-56
2022/08/17 04:46:01;;;;;;;8.23;4.80;;;;;;;19.18;100.00;98159.47;5020505;28;20032;-56
2022/08/17 04:48:30;;;;;;;10.32;5.22;;;;;;;18.93;100.00;98114.59;5017584;28;20025;-58
2022/08/17 04:50:58;;;;;;;9.60;4.68;;;;;;;19.28;100.00;98171.38;5020872;28;20033;-57
2022/08/17 04:53:23;;;;;;;6.95;4.63;;;;;;;19.16;100.00;98165.94;5004142;28;20498;-56
2022/08/17 04:55:51;;;;;;;8.63;5.10;;;;;;;19.15;100.00;98182.78;5036305;28;20119;-58
2022/08/17 04:58:16;;;;;;;8.27;4.75;;;;;;;19.09;100.00;98180.97;5017190;28;20029;-57
2022/08/17 05:00:42;;;;;;;7.70;4.45;;;;;;;19.16;100.00;98179.13;5021543;28;20044;-56
2022/08/17 05:03:08;;;;;;;8.25;5.30;;;;;;;19.27;100.00;98189.00;5019722;28;20045;-56
2022/08/17 05:05:36;;;;;;;9.35;4.85;;;;;;;19.34;100.00;98188.97;5016726;28;20030;-57
2022/08/17 05:08:04;;;;;;;7.75;5.03;;;;;;;19.41;100.00;98184.47;5024932;28;20040;-57
2022/08/17 05:10:35;;;;;;;7.10;4.45;;;;;;;19.56;100.00;98202.63;5014465;28;20026;-57
2022/08/17 05:13:04;;;;;;;8.30;4.40;;;;;;;19.58;100.00;98201.38;5013576;28;20045;-57
2022/08/17 05:15:30;;;;;;;10.57;5.50;;;;;;;19.62;100.00;98214.16;4994543;28;20072;-57
2022/08/17 05:17:56;;;;;;;8.52;5.60;;;;;;;19.56;100.00;98192.88;5021865;28;20104;-57
2022/08/17 05:20:22;;;;;;;8.98;5.30;;;;;;;19.68;100.00;98221.22;5016013;28;20116;-57
2022/08/17 05:22:55;;;;;;;11.02;5.35;;;;;;;19.70;100.00;98221.81;5011026;28;20564;-58
2022/08/17 05:25:28;;;;;;;9.43;5.45;;;;;;;19.64;100.00;98234.03;5015210;28;20025;-57
2022/08/17 05:27:54;;;;;;;7.95;4.63;;;;;;;19.50;100.00;98187.66;5007301;28;20017;-57
2022/08/17 05:30:21;;;;;;;9.95;4.97;;;;;;;19.70;100.00;98227.88;5010559;28;20116;-59
2022/08/17 05:32:57;;;;;;;11.05;5.88;;;;;;;19.80;100.00;98224.81;5012155;28;20040;-58
2022/08/17 05:35:24;;;;;;;7.28;4.65;;;;;;;19.72;100.00;98215.28;4960314;28;20116;-57
2022/08/17 05:37:50;;;;;;;10.05;4.38;;;;;;;19.87;100.00;98220.28;4988495;28;20103;-58
2022/08/17 05:40:16;;;;;;;12.57;4.80;;;;;;;19.97;100.00;98230.38;5010127;28;20488;-58
2022/08/17 05:42:42;;;;;;;10.85;5.05;;;;;;;19.93;100.00;98235.28;5015554;28;20451;-57
2022/08/17 05:45:08;;;;;;;8.85;5.15;;;;;;;19.94;100.00;98239.53;5016762;28;20040;-57
2022/08/17 05:47:34;;;;;;;13.15;5.20;;;;;;;19.91;100.00;98247.06;5011173;28;20040;-57
2022/08/17 05:50:00;;;;;;;9.13;4.88;;;;;;;19.90;100.00;98240.19;5010346;28;20048;-58
2022/08/17 05:52:28;;;;;;;7.65;5.10;;;;;;;19.88;100.00;98232.47;5013336;28;20026;-58
2022/08/17 05:55:18;;;;;;;7.18;5.00;;;;;;;20.00;100.00;98244.97;5015294;28;20071;-57
2022/08/17 05:58:10;;;;;;;8.38;4.70;;;;;;;20.00;100.00;98244.97;5000349;28;20033;-57
2022/08/17 06:00:54;;;;;;;7.05;4.63;;;;;;;19.84;100.00;98206.72;5014388;28;20527;-58
2022/08/17 06:03:41;;;;;;;6.95;4.70;;;;;;;19.88;100.00;98215.84;4994556;28;20021;-57
2022/08/17 06:06:24;;;;;;;8.70;4.95;;;;;;;20.18;100.00;98245.03;5010905;28;20112;-58
2022/08/17 06:08:57;;;;;;;8.20;4.75;;;;;;;20.11;100.00;98237.16;5020232;28;20033;-59
2022/08/17 06:11:35;;;;;;;8.50;5.35;;;;;;;19.97;100.00;98201.38;5014253;28;20030;-58
2022/08/17 06:14:32;;;;;;;7.97;5.40;;;;;;;20.15;100.00;98235.72;5049549;28;20025;-58
2022/08/17 06:17:11;;;;;;;8.55;5.25;;;;;;;20.21;100.00;98262.28;5017474;28;20132;-59
2022/08/17 06:19:48;;;;;;;9.18;5.55;;;;;;;20.16;100.00;98258.44;5012705;28;20025;-58
2022/08/17 06:22:16;;;;;;;8.80;5.47;;;;;;;20.21;100.00;98260.44;5010991;28;20034;-58
2022/08/17 06:24:46;;;;;;;8.95;5.38;;;;;;;20.22;100.00;98277.06;5015260;28;20093;-57
2022/08/17 06:27:21;;;;;;;7.85;5.22;;;;;;;20.25;100.00;98264.25;5016094;28;20611;-58
2022/08/17 06:29:56;;;;;;;8.02;5.13;;;;;;;20.27;100.00;98266.69;5015460;28;20030;-59
2022/08/17 06:32:22;;;;;;;9.00;5.55;;;;;;;20.26;100.00;98257.13;5018733;28;20094;-58
2022/08/17 06:34:47;;;;;;;7.97;5.10;;;;;;;20.06;100.00;98207.97;5017230;28;20801;-58
2022/08/17 06:37:52;;;;;;;6.85;4.80;;;;;;;20.33;100.00;98252.63;5019823;28;20037;-57
2022/08/17 06:40:36;;;;;;;7.30;4.82;;;;;;;20.31;100.00;98246.75;5019341;28;20061;-58
2022/08/17 06:43:11;;;;;;;7.32;4.82;;;;;;;20.05;100.00;98209.00;5015888;28;20080;-58
2022/08/17 06:45:48;;;;;;;8.60;4.72;;;;;;;20.27;100.00;98243.72;5018823;28;20032;-57
2022/08/17 06:48:34;;;;;;;9.02;5.18;;;;;;;20.32;100.00;98257.09;4999758;28;20048;-58
2022/08/17 06:51:05;;;;;;;7.03;4.40;;;;;;;20.35;100.00;98240.00;5020409;28;20037;-58
2022/08/17 06:53:59;;;;;;;8.35;4.50;;;;;;;20.31;100.00;98221.16;5013344;28;20044;-59
2022/08/17 06:56:42;;;;;;;7.68;4.90;;;;;;;20.40;100.00;98226.16;4999290;28;20511;-58
2022/08/17 06:59:11;;;;;;;7.93;5.25;;;;;;;20.41;100.00;98218.03;4997173;28;20043;-58
2022/08/17 07:01:37;;;;;;;;;;;;;;;20.48;100.00;98207.38;5014364;28;20030;-58
2022/08/17 07:04:20;;;;;;;8.43;4.45;;;;;;;20.56;100.00;98209.75;5011864;28;19917;-59
2022/08/17 07:08:00;;;;;;;8.48;4.65;;;;;;;20.59;100.00;98211.13;4996667;28;20073;-58
2022/08/17 07:09:53;;;;;;;7.35;4.80;;;;;;;20.56;100.00;98212.41;5015892;28;20138;-58
2022/08/17 07:12:23;;;;;;;8.07;5.43;;;;;;;20.62;100.00;98208.09;5001165;28;20060;-58
2022/08/17 07:14:50;;;;;;;;;;;;;;;20.67;100.00;98198.50;5018657;28;20064;-58
2022/08/17 07:17:19;;;;;;;7.07;4.47;;;;;;;20.71;100.00;98204.13;5017645;28;19968;-58
2022/08/17 07:19:47;;;;;;;9.13;5.10;;;;;;;20.50;100.00;98160.47;5016977;28;20060;-57
2022/08/17 07:22:32;;;;;;;7.53;4.78;;;;;;;20.80;100.00;98205.47;5013869;28;20034;-57
2022/08/17 07:25:00;;;;;;;7.93;5.03;;;;;;;20.65;100.00;98192.63;5004777;28;20029;-59
2022/08/17 07:27:38;;;;;;;7.05;4.97;;;;;;;20.79;100.00;98206.50;4993749;28;20065;-58
2022/08/17 07:30:07;;;;;;;6.85;4.55;;;;;;;20.86;100.00;98201.94;5019358;28;20037;-58
2022/08/17 07:32:41;;;;;;;10.07;4.88;;;;;;;20.69;99.87;98158.66;5019784;28;20124;-58
2022/08/17 07:35:11;;;;;;;9.55;4.72;;;;;;;20.90;100.00;98179.34;5013423;28;20048;-58
2022/08/17 07:37:39;;;;;;;8.85;5.15;;;;;;;21.01;100.00;98193.63;5014637;28;20057;-59
2022/08/17 07:40:35;;;;;;;7.78;4.95;;;;;;;21.06;100.00;98188.47;5013452;28;20470;-59
2022/08/17 07:43:39;;;;;;;7.15;4.50;;;;;;;21.04;100.00;98197.66;5018371;28;20029;-58
2022/08/17 07:49:11;;;;;;;7.15;4.40;;;;;;;21.08;99.39;98218.16;5019678;28;20078;-59
2022/08/17 07:51:42;;;;;;;;;;;;;;;21.32;94.26;98255.28;5020872;28;20033;-59
2022/08/17 07:54:13;;;;;;;6.88;4.18;;;;;;;21.36;94.18;98267.03;5024088;28;19917;-58
2022/08/17 07:56:45;;;;;;;6.50;4.43;;;;;;;21.36;94.73;98269.66;5021398;28;20033;-58
2022/08/17 07:59:10;;;;;;;8.60;4.90;;;;;;;21.30;95.69;98281.13;5026036;28;20091;-58
2022/08/17 08:01:36;;;;;;;7.25;4.97;;;;;;;21.30;96.22;98287.22;5021400;28;20459;-59
2022/08/17 08:04:24;;;;;;;6.55;4.20;;;;;;;21.36;96.37;98282.09;5004780;28;20033;-58
2022/08/17 08:06:53;;;;;;;7.55;4.43;;;;;;;21.45;93.87;98296.66;5036605;28;20056;-59
2022/08/17 08:09:33;;;;;;;9.00;4.53;;;;;;;21.57;94.69;98299.34;5022851;28;20123;-57
2022/08/17 08:12:00;;;;;;;7.47;4.40;;;;;;;21.31;91.39;98258.94;5022533;28;20037;-58
2022/08/17 08:14:29;;;;;;;7.80;4.53;;;;;;;21.40;90.53;98259.44;5020575;28;20033;-58
2022/08/17 08:17:01;;;;;;;6.67;4.30;;;;;;;21.65;90.79;98270.75;5004154;28;20026;-59
2022/08/17 08:19:28;;;;;;;6.75;4.30;;;;;;;21.34;90.88;98228.59;5026660;28;20112;-59
2022/08/17 08:22:06;;;;;;;6.47;4.40;;;;;;;21.72;91.26;98256.59;5022092;28;20079;-59
2022/08/17 08:24:50;;;;;;;7.68;4.70;;;;;;;22.11;89.80;98272.94;5001613;28;20037;-59
2022/08/17 08:27:38;;;;;;;8.15;4.22;;;;;;;22.28;86.16;98255.38;5021050;28;20029;-59
2022/08/17 08:30:13;;;;;;;6.57;3.85;;;;;;;22.32;86.73;98253.88;5020010;28;20336;-58
2022/08/17 08:33:01;;;;;;;8.23;4.20;;;;;;;22.32;85.98;98240.63;5017853;28;20778;-58
2022/08/17 08:35:36;;;;;;;8.60;4.25;;;;;;;22.52;86.54;98232.31;5011972;28;20068;-59
2022/08/17 08:38:25;;;;;;;7.72;4.25;;;;;;;22.83;85.05;98233.81;5001971;28;20060;-59
2022/08/17 08:41:20;;;;;;;7.00;4.28;;;;;;;22.99;80.89;98250.03;5021521;28;20110;-59
2022/08/17 08:44:02;;;;;;;6.72;3.88;;;;;;;22.64;80.43;98219.09;5023000;28;20033;-59
2022/08/17 08:46:27;;;;;;;7.15;4.07;;;;;;;22.80;80.59;98231.63;5019077;28;20609;-60
2022/08/17 08:49:02;;;;;;;7.78;4.28;;;;;;;23.22;80.76;98255.31;5013904;28;20026;-59
2022/08/17 08:51:56;;;;;;;6.60;3.83;;;;;;;23.19;80.75;98270.88;5021784;28;20033;-59
2022/08/17 08:54:38;;;;;;;6.07;4.15;;;;;;;23.02;81.56;98270.78;5018697;28;20112;-58
2022/08/17 08:57:20;;;;;;;6.82;4.00;;;;;;;23.02;83.38;98263.63;5020341;28;20196;-59
2022/08/17 08:59:58;;;;;;;6.95;3.83;;;;;;;22.69;81.88;98248.34;5018664;28;20467;-60
2022/08/17 09:02:29;;;;;;;6.73;4.30;;;;;;;22.48;84.31;98240.97;5021150;28;20698;-59
2022/08/17 09:05:19;;;;;;;6.85;3.97;;;;;;;22.36;84.21;98231.19;5014788;28;20033;-59
2022/08/17 09:07:47;;;;;;;6.40;3.90;;;;;;;22.62;84.37;98276.81;5011697;28;20101;-59
2022/08/17 09:10:24;;;;;;;6.70;3.92;;;;;;;22.66;84.13;98267.34;5015538;28;20034;-59
2022/08/17 09:13:08;;;;;;;6.65;3.92;;;;;;;22.72;84.92;98247.88;5013089;28;20109;-58
2022/08/17 09:15:40;;;;;;;8.32;3.95;;;;;;;22.72;84.08;98261.13;5013686;28;20032;-58
2022/08/17 09:18:11;;;;;;;6.47;4.28;;;;;;;22.71;83.76;98251.56;5009165;28;20057;-58
2022/08/17 09:21:01;;;;;;;7.40;4.10;;;;;;;22.64;83.23;98249.03;5011225;28;20033;-60
2022/08/17 09:23:58;;;;;;;9.05;4.25;;;;;;;22.76;83.15;98253.50;5004403;28;20083;-58
2022/08/17 09:26:57;;;;;;;7.10;4.45;;;;;;;22.95;85.57;98260.28;5005955;28;20038;-59
2022/08/17 09:29:25;;;;;;;6.95;4.70;;;;;;;23.02;82.83;98260.97;4998928;28;20043;-58
2022/08/17 09:31:56;;;;;;;8.38;4.05;;;;;;;23.17;82.19;98260.50;5014854;28;20099;-58
2022/08/17 09:34:29;;;;;;;6.22;4.20;;;;;;;23.15;82.88;98233.41;5018872;28;20112;-59
2022/08/17 09:36:54;;;;;;;5.75;3.67;;;;;;;23.28;80.93;98258.84;5020912;28;20055;-58
2022/08/17 09:39:29;;;;;;;6.53;4.10;;;;;;;23.18;81.81;98267.44;5023614;28;20033;-58
2022/08/17 09:42:22;;;;;;;6.30;4.28;;;;;;;23.05;82.32;98264.22;5001443;28;20033;-60
2022/08/17 09:44:57;;;;;;;7.78;4.20;;;;;;;23.10;82.86;98267.78;5018534;28;20032;-58
2022/08/17 09:47:36;;;;;;;7.25;4.15;;;;;;;23.12;82.55;98259.59;5001137;28;20029;-58
2022/08/17 09:50:12;;;;;;;8.63;4.28;;;;;;;23.14;82.41;98241.59;5020432;28;20029;-58
2022/08/17 09:52:38;;;;;;;6.25;4.07;;;;;;;23.31;82.33;98244.31;5016287;28;20033;-59
2022/08/17 09:55:04;;;;;;;6.18;4.25;;;;;;;23.47;80.44;98232.13;5019935;28;20086;-59
2022/08/17 09:58:06;;;;;;;8.50;4.10;;;;;;;23.56;79.00;98233.38;5022562;28;20084;-59
2022/08/17 10:00:35;;;;;;;6.50;3.90;;;;;;;23.44;80.37;98198.94;5009871;28;20054;-58
2022/08/17 10:03:10;;;;;;;7.05;4.00;;;;;;;23.65;77.88;98236.44;5018405;28;20718;-58
2022/08/17 10:05:45;;;;;;;6.72;4.13;;;;;;;23.58;78.36;98226.78;5013023;28;20034;-58
2022/08/17 10:08:33;;;;;;;7.53;4.05;;;;;;;23.72;78.03;98229.94;5017105;28;20116;-58
2022/08/17 10:11:04;;;;;;;5.97;3.80;;;;;;;23.73;75.39;98238.69;5017222;28;20091;-58
2022/08/17 10:14:08;;;;;;;8.18;4.43;;;;;;;23.74;75.96;98235.81;5021229;28;20025;-58
2022/08/17 10:16:39;;;;;;;6.90;3.97;;;;;;;23.87;76.04;98247.19;5026359;28;20104;-58
2022/08/17 10:19:39;;;;;;;6.45;3.50;;;;;;;23.76;74.57;98233.72;5003857;28;20476;-58
2022/08/17 10:28:16;;;;;;;5.35;3.55;;;;;;;24.11;75.13;98223.94;5018574;28;20052;-58
2022/08/17 10:30:49;;;;;;;;;;;;;;;24.40;74.15;98222.00;5013450;28;20600;-59
2022/08/17 10:33:26;;;;;;;6.95;3.70;;;;;;;24.32;72.18;98194.00;5024437;28;19995;-59
2022/08/17 10:35:55;;;;;;;6.47;3.80;;;;;;;24.26;71.89;98197.63;5014350;28;20029;-58
2022/08/17 10:38:29;;;;;;;6.78;3.67;;;;;;;24.58;73.67;98228.13;5020482;28;20036;-58
2022/08/17 10:41:19;;;;;;;7.07;3.60;;;;;;;24.73;72.04;98231.81;5021485;28;20069;-58
2022/08/17 10:44:09;;;;;;;6.47;3.50;;;;;;;24.70;69.25;98221.66;5048496;28;20033;-58
2022/08/17 10:47:00;;;;;;;7.50;3.65;;;;;;;24.85;67.19;98214.94;4987451;28;20037;-58
2022/08/17 10:49:32;;;;;;;6.20;3.45;;;;;;;24.84;67.00;98182.19;4998897;28;20029;-59
2022/08/17 10:52:24;;;;;;;8.02;3.65;;;;;;;25.13;65.44;98224.56;5012854;28;20041;-58
2022/08/17 10:54:50;;;;;;;5.93;3.63;;;;;;;24.98;67.39;98216.41;5018478;28;20091;-59
2022/08/17 10:57:30;;;;;;;6.38;3.78;;;;;;;25.06;67.87;98208.81;5013173;28;20507;-58
2022/08/17 10:59:59;;;;;;;5.93;3.22;;;;;;;24.91;65.89;98169.50;5013730;28;20025;-59
2022/08/17 11:02:38;;;;;;;6.18;3.30;;;;;;;25.14;65.91;98204.91;5014220;28;20025;-58
2022/08/17 11:05:22;;;;;;;6.80;3.50;;;;;;;25.22;65.74;98207.09;5010852;28;20032;-59
2022/08/17 11:08:19;;;;;;;6.47;3.60;;;;;;;25.14;65.87;98210.22;5017234;28;20033;-59
2022/08/17 11:10:54;;;;;;;8.05;3.47;;;;;;;25.10;63.57;98203.78;5018293;28;20030;-58
2022/08/17 11:13:49;;;;;;;7.78;3.28;;;;;;;25.06;64.13;98184.88;5017716;28;20195;-59
2022/08/17 11:16:39;;;;;;;6.57;3.58;;;;;;;25.30;63.14;98204.03;5004928;28;20045;-59
2022/08/17 11:19:13;;;;;;;6.57;3.58;;;;;;;25.37;60.84;98205.69;5015244;28;20025;-57
2022/08/17 11:21:41;;;;;;;7.38;3.63;;;;;;;25.56;62.66;98198.97;5008303;28;20022;-58
2022/08/17 11:24:29;;;;;;;5.45;3.00;;;;;;;25.87;61.88;98202.69;5014655;28;20037;-58
2022/08/17 11:27:06;;;;;;;7.70;3.40;;;;;;;25.84;61.67;98171.22;5015892;28;20041;-58
2022/08/17 11:29:45;;;;;;;5.93;3.45;;;;;;;25.82;62.95;98186.66;5018054;28;20163;-60
2022/08/17 11:32:36;;;;;;;6.45;3.15;;;;;;;25.97;64.12;98183.34;5019905;28;20064;-59
2022/08/17 11:35:21;;;;;;;7.45;3.80;;;;;;;25.92;64.03;98177.97;5001579;28;20502;-58
2022/08/17 11:38:24;;;;;;;6.45;3.65;;;;;;;25.98;65.40;98182.28;5017105;28;20037;-57
2022/08/17 11:41:03;;;;;;;5.68;2.95;;;;;;;25.97;65.14;98180.66;5018765;28;20045;-57
2022/08/17 11:44:01;;;;;;;5.87;3.90;;;;;;;25.84;66.49;98163.25;5015908;28;20033;-60
2022/08/17 11:52:36;;;;;;;5.90;3.25;;;;;;;25.98;64.89;98141.53;5016610;28;20057;-59
2022/08/17 11:55:02;;;;;;;6.43;3.50;;;;;;;25.97;62.80;98123.94;5015644;28;20025;-59
2022/08/17 11:57:30;;;;;;;7.70;3.83;;;;;;;26.18;61.89;98147.00;4996462;28;20022;-58
2022/08/17 12:00:07;;;;;;;6.32;3.53;;;;;;;26.34;60.39;98155.88;5010538;28;20061;-58
2022/08/17 12:02:37;;;;;;;7.97;4.28;;;;;;;26.22;59.95;98150.75;5015900;28;20028;-58
2022/08/17 12:05:23;;;;;;;6.18;3.65;;;;;;;26.43;60.81;98175.66;5018842;28;20034;-60
2022/08/17 12:08:06;;;;;;;6.88;3.95;;;;;;;26.06;59.11;98117.06;5018386;28;20033;-58
2022/08/17 12:10:34;;;;;;;6.63;3.42;;;;;;;26.37;58.45;98171.34;5000272;28;20029;-58
2022/08/17 12:13:14;;;;;;;5.50;3.38;;;;;;;26.61;58.38;98168.28;4999065;28;20061;-58
2022/08/17 12:15:47;;;;;;;7.18;3.80;;;;;;;26.65;59.27;98145.38;5015579;28;20033;-58
2022/08/17 12:18:28;;;;;;;8.35;4.00;;;;;;;26.61;58.23;98157.63;5011533;28;20025;-59
2022/08/17 12:21:23;;;;;;;5.75;3.17;;;;;;;26.75;59.54;98153.41;5017760;28;20052;-59
2022/08/17 12:23:55;;;;;;;5.07;3.15;;;;;;;26.62;59.49;98111.25;5015375;28;20017;-58
2022/08/17 12:26:24;;;;;;;7.63;3.30;;;;;;;26.86;58.57;98154.25;5019068;28;20115;-58
2022/08/17 12:28:51;;;;;;;;;;;;;;;26.79;59.04;98145.69;5018337;28;20419;-58